Time;durP1;ratioP1;P1;durP2;ratioP2;P2;SDS_P1;SDS_P2;PMS_P1;PMS_P2;Temp;Humidity;BMP_temperature;BMP_pressure;BME280_temperature;BME280_humidity;BME280_pressure;Samples;Min_cycle;Max_cycle;Signal;HPM_P1;HPM_P2
2023/03/08 00:00:13;;;;;;;14.18;7.93;;;3.50;99.30;;;;;;5154882;27;20022;-71
2023/03/08 00:02:38;;;;;;;14.27;7.43;;;3.50;99.30;;;;;;5155150;27;20026;-70
2023/03/08 00:05:05;;;;;;;13.15;7.53;;;3.50;99.40;;;;;;5154612;27;20386;-71
2023/03/08 00:07:30;;;;;;;15.15;8.60;;;3.50;99.50;;;;;;5154940;27;20035;-71
2023/03/08 00:09:56;;;;;;;18.10;8.52;;;3.50;99.50;;;;;;5154340;27;20034;-70
2023/03/08 00:12:22;;;;;;;17.20;7.53;;;3.60;99.60;;;;;;5154553;27;20383;-70
2023/03/08 00:14:49;;;;;;;13.55;7.78;;;3.60;99.60;;;;;;5154621;27;20469;-70
2023/03/08 00:17:15;;;;;;;15.23;8.52;;;3.70;99.40;;;;;;5154485;27;20444;-71
2023/03/08 00:19:41;;;;;;;17.48;9.20;;;3.90;99.20;;;;;;5154636;27;20034;-70
2023/03/08 00:22:07;;;;;;;14.57;7.75;;;3.90;99.30;;;;;;5154860;27;20027;-70
2023/03/08 00:24:33;;;;;;;14.43;8.02;;;3.90;99.30;;;;;;5153728;27;20015;-71
2023/03/08 00:26:59;;;;;;;14.15;8.10;;;3.80;99.50;;;;;;5155124;27;20038;-70
2023/03/08 00:29:24;;;;;;;15.48;7.45;;;3.90;99.50;;;;;;5153633;27;20400;-70
2023/03/08 00:31:50;;;;;;;14.00;8.13;;;3.90;99.50;;;;;;5155008;27;20098;-71
2023/03/08 00:34:15;;;;;;;15.70;7.97;;;3.90;99.50;;;;;;5153876;27;20042;-71
2023/03/08 00:36:41;;;;;;;16.73;8.35;;;3.90;99.50;;;;;;5155160;27;20033;-70
2023/03/08 00:39:07;;;;;;;13.48;7.88;;;4.10;99.40;;;;;;5164322;27;20023;-70
2023/03/08 00:41:33;;;;;;;14.50;7.93;;;4.10;99.30;;;;;;5174745;27;20105;-70
2023/03/08 00:43:59;;;;;;;19.90;8.48;;;4.10;99.30;;;;;;5176211;27;20118;-71
2023/03/08 00:46:24;;;;;;;14.68;8.85;;;4.10;99.20;;;;;;5174077;27;20050;-70
2023/03/08 00:48:50;;;;;;;13.25;8.63;;;4.10;99.30;;;;;;5176046;27;20117;-71
2023/03/08 00:51:18;;;;;;;19.95;8.90;;;4.10;99.40;;;;;;5174772;27;20022;-71
2023/03/08 00:53:44;;;;;;;16.00;8.90;;;4.10;99.40;;;;;;5150398;27;20022;-70
2023/03/08 00:56:10;;;;;;;15.25;8.60;;;4.10;99.50;;;;;;5153053;27;20426;-73
2023/03/08 00:58:38;;;;;;;17.20;8.38;;;4.10;99.50;;;;;;5154480;27;20033;-71
2023/03/08 01:01:05;;;;;;;13.88;8.25;;;4.10;99.60;;;;;;5154439;27;20042;-72
2023/03/08 01:03:31;;;;;;;15.68;9.32;;;4.00;99.70;;;;;;5153633;27;20061;-71
2023/03/08 01:05:57;;;;;;;17.90;8.63;;;4.10;99.60;;;;;;5154201;27;20433;-71
2023/03/08 01:08:24;;;;;;;14.32;8.18;;;4.10;99.60;;;;;;5154108;27;20027;-71
2023/03/08 01:10:52;;;;;;;17.35;8.65;;;4.10;99.60;;;;;;5148190;27;20031;-70
2023/03/08 01:13:18;;;;;;;16.58;8.77;;;4.10;99.70;;;;;;5153340;27;20026;-71
2023/03/08 01:15:44;;;;;;;14.73;8.02;;;4.00;99.70;;;;;;5154008;27;20076;-71
2023/03/08 01:18:09;;;;;;;14.40;8.52;;;4.00;99.80;;;;;;5154602;27;20027;-71
2023/03/08 01:20:35;;;;;;;18.58;8.63;;;3.90;99.90;;;;;;5153427;27;20448;-70
2023/03/08 01:23:01;;;;;;;16.80;8.98;;;3.80;99.90;;;;;;5154118;27;20069;-71
2023/03/08 01:25:27;;;;;;;16.42;8.93;;;3.80;99.90;;;;;;5152736;27;20046;-71
2023/03/08 01:27:52;;;;;;;18.48;8.98;;;3.70;99.90;;;;;;5148830;27;20030;-70
2023/03/08 01:30:18;;;;;;;16.58;8.75;;;3.60;99.90;;;;;;5152658;27;20054;-71
2023/03/08 01:32:43;;;;;;;17.85;9.90;;;3.50;99.90;;;;;;5153961;27;20381;-71
2023/03/08 01:35:09;;;;;;;15.32;9.05;;;3.40;99.90;;;;;;5153226;27;20029;-71
2023/03/08 01:37:35;;;;;;;14.88;8.27;;;3.30;99.90;;;;;;5152511;27;20510;-70
2023/03/08 01:40:03;;;;;;;16.70;9.18;;;3.20;99.90;;;;;;5153239;27;20471;-70
2023/03/08 01:42:28;;;;;;;20.63;10.27;;;3.20;99.90;;;;;;5152431;27;20119;-70
2023/03/08 01:45:03;;;;;;;19.00;9.77;;;3.10;99.90;;;;;;5152590;27;20074;-71
2023/03/08 01:47:31;;;;;;;17.23;9.25;;;3.10;99.90;;;;;;5136619;27;20505;-70
2023/03/08 01:50:02;;;;;;;16.85;9.27;;;3.10;99.90;;;;;;5153005;27;20036;-69
2023/03/08 01:52:33;;;;;;;17.40;9.38;;;3.00;99.90;;;;;;5143080;27;20027;-70
2023/03/08 01:55:02;;;;;;;18.10;9.18;;;3.00;99.90;;;;;;5146719;27;20031;-70
2023/03/08 01:57:35;;;;;;;18.42;8.93;;;2.90;99.90;;;;;;5152495;27;20030;-70
2023/03/08 02:00:23;;;;;;;17.45;9.05;;;2.90;99.90;;;;;;5153024;27;20368;-70
2023/03/08 02:02:56;;;;;;;16.90;9.60;;;2.80;99.90;;;;;;5153096;27;20074;-71
2023/03/08 02:05:23;;;;;;;20.15;10.10;;;2.70;99.90;;;;;;5152273;27;20019;-71
2023/03/08 02:07:48;;;;;;;21.20;9.90;;;2.60;99.90;;;;;;5153176;27;20027;-71
2023/03/08 02:10:16;;;;;;;22.05;10.23;;;2.60;99.90;;;;;;5141785;27;20046;-71
2023/03/08 02:12:42;;;;;;;17.52;9.25;;;2.50;99.90;;;;;;5144629;27;20034;-70
2023/03/08 02:15:10;;;;;;;18.52;9.63;;;2.50;99.90;;;;;;5150869;27;20110;-70
2023/03/08 02:17:38;;;;;;;20.80;9.85;;;2.60;99.90;;;;;;5134621;27;20033;-70
2023/03/08 02:20:12;;;;;;;18.38;9.98;;;2.70;99.90;;;;;;5152676;27;20022;-70
2023/03/08 02:22:40;;;;;;;18.15;9.15;;;2.70;99.90;;;;;;5141199;27;20068;-70
2023/03/08 02:25:15;;;;;;;17.50;9.52;;;2.70;99.90;;;;;;5143135;27;20031;-70
2023/03/08 02:27:41;;;;;;;19.88;9.63;;;2.70;99.90;;;;;;5153132;27;20383;-70
2023/03/08 02:30:08;;;;;;;18.35;8.88;;;2.70;99.90;;;;;;5136688;27;20106;-70
2023/03/08 02:32:34;;;;;;;14.43;8.35;;;2.70;99.90;;;;;;5132030;28;20039;-71
2023/03/08 02:34:59;;;;;;;18.27;10.07;;;2.70;99.90;;;;;;5132385;28;20091;-70
2023/03/08 02:37:25;;;;;;;20.58;9.38;;;2.80;99.90;;;;;;5132225;28;20039;-71
2023/03/08 02:39:50;;;;;;;17.05;9.73;;;2.80;99.90;;;;;;5132243;28;20461;-70
2023/03/08 02:42:16;;;;;;;17.33;9.32;;;2.80;99.90;;;;;;5131844;28;20060;-71
2023/03/08 02:44:41;;;;;;;17.77;9.48;;;2.80;99.90;;;;;;5126899;27;20043;-70
2023/03/08 02:47:07;;;;;;;17.48;9.25;;;2.80;99.90;;;;;;5132056;28;20062;-70
2023/03/08 02:49:33;;;;;;;16.40;8.35;;;2.80;99.90;;;;;;5130893;28;20019;-71
2023/03/08 02:51:58;;;;;;;19.35;8.85;;;2.80;99.90;;;;;;5127214;28;20026;-70
2023/03/08 02:54:24;;;;;;;19.15;9.35;;;2.80;99.90;;;;;;5110539;28;20031;-71
2023/03/08 02:56:49;;;;;;;19.00;8.93;;;2.90;99.90;;;;;;5111957;28;20020;-70
2023/03/08 02:59:15;;;;;;;17.15;9.43;;;2.90;99.90;;;;;;5110658;28;20435;-71
2023/03/08 03:01:41;;;;;;;16.50;8.52;;;2.80;99.90;;;;;;5116459;28;20032;-70
2023/03/08 03:04:06;;;;;;;18.13;9.10;;;2.90;99.90;;;;;;5132225;28;20034;-71
2023/03/08 03:06:32;;;;;;;17.17;8.93;;;3.00;99.90;;;;;;5131082;28;20745;-71
2023/03/08 03:08:58;;;;;;;20.35;9.35;;;3.00;99.90;;;;;;5121304;28;20466;-70
2023/03/08 03:11:24;;;;;;;20.42;9.85;;;3.00;99.90;;;;;;5110450;28;20076;-71
2023/03/08 03:13:57;;;;;;;16.77;8.75;;;3.00;99.90;;;;;;5111542;28;20027;-72
2023/03/08 03:16:24;;;;;;;15.68;9.23;;;3.00;99.90;;;;;;5110470;28;20019;-71
2023/03/08 03:18:51;;;;;;;16.35;8.85;;;3.00;99.90;;;;;;5122585;28;20020;-71
2023/03/08 03:21:17;;;;;;;15.48;8.52;;;3.00;99.90;;;;;;5130774;28;20065;-71
2023/03/08 03:23:42;;;;;;;15.93;8.50;;;3.00;99.90;;;;;;5131928;28;20532;-71
2023/03/08 03:26:10;;;;;;;18.13;8.90;;;3.00;99.90;;;;;;5131711;28;20019;-70
2023/03/08 03:28:36;;;;;;;17.77;8.65;;;3.10;99.90;;;;;;5128530;28;20026;-71
2023/03/08 03:31:10;;;;;;;15.80;8.93;;;3.10;99.90;;;;;;5111162;28;20122;-71
2023/03/08 03:33:37;;;;;;;16.08;8.07;;;3.10;99.90;;;;;;5110816;28;20031;-70
2023/03/08 03:36:03;;;;;;;17.05;8.55;;;3.00;99.90;;;;;;5113015;28;20027;-71
2023/03/08 03:38:29;;;;;;;18.40;8.82;;;3.00;99.90;;;;;;5127006;27;20068;-70
2023/03/08 03:41:06;;;;;;;15.15;9.15;;;3.00;99.90;;;;;;5124342;27;20032;-70
2023/03/08 03:43:32;;;;;;;16.63;8.48;;;3.00;99.90;;;;;;5126084;27;20033;-70
2023/03/08 03:45:59;;;;;;;16.48;8.50;;;3.00;99.90;;;;;;5145060;27;20117;-71
2023/03/08 03:48:25;;;;;;;19.13;9.25;;;3.00;99.90;;;;;;5154588;27;20420;-71
2023/03/08 03:50:56;;;;;;;16.90;8.68;;;2.90;99.90;;;;;;5155436;27;20111;-71
2023/03/08 03:53:22;;;;;;;18.40;9.00;;;2.90;99.90;;;;;;5154985;27;20022;-70
2023/03/08 03:55:48;;;;;;;17.88;9.13;;;3.00;99.90;;;;;;5155128;27;20461;-70
2023/03/08 03:58:14;;;;;;;16.17;8.68;;;3.00;99.90;;;;;;5154914;27;20050;-71
2023/03/08 04:00:40;;;;;;;16.15;8.52;;;3.00;99.90;;;;;;5155035;27;20453;-70
2023/03/08 04:03:05;;;;;;;17.67;8.07;;;3.10;99.90;;;;;;5155482;27;20031;-70
2023/03/08 04:05:31;;;;;;;16.13;7.72;;;3.10;99.90;;;;;;5154653;27;20231;-71
2023/03/08 04:07:56;;;;;;;15.48;9.02;;;3.10;99.90;;;;;;5155331;27;20015;-70
2023/03/08 04:10:22;;;;;;;17.38;8.70;;;3.10;99.90;;;;;;5153575;27;20066;-70
2023/03/08 04:12:50;;;;;;;17.75;8.95;;;3.10;99.90;;;;;;5155231;27;20114;-70
2023/03/08 04:15:16;;;;;;;16.45;8.43;;;3.10;99.90;;;;;;5153923;27;20023;-70
2023/03/08 04:17:42;;;;;;;16.80;8.50;;;3.10;99.90;;;;;;5155195;27;20464;-71
2023/03/08 04:20:08;;;;;;;16.45;9.02;;;3.00;99.90;;;;;;5154396;27;20433;-71
2023/03/08 04:22:34;;;;;;;17.30;9.02;;;3.10;99.90;;;;;;5135481;27;20027;-72
2023/03/08 04:24:59;;;;;;;17.00;9.15;;;3.10;99.90;;;;;;5154792;27;20083;-71
2023/03/08 04:27:25;;;;;;;14.48;8.32;;;3.10;99.90;;;;;;5154246;27;20584;-70
2023/03/08 04:29:51;;;;;;;16.85;9.00;;;3.10;99.90;;;;;;5154056;27;20023;-70
2023/03/08 04:32:17;;;;;;;17.80;9.10;;;3.10;99.90;;;;;;5154213;27;20039;-70
2023/03/08 04:34:43;;;;;;;17.15;8.55;;;3.10;99.90;;;;;;5158029;27;20018;-70
2023/03/08 04:37:11;;;;;;;13.85;7.97;;;3.10;99.90;;;;;;5176313;27;20071;-70
2023/03/08 04:39:37;;;;;;;12.80;7.63;;;3.10;99.90;;;;;;5175130;27;20101;-70
2023/03/08 04:42:03;;;;;;;18.23;8.82;;;3.10;99.90;;;;;;5176051;27;20126;-70
2023/03/08 04:44:29;;;;;;;14.25;8.40;;;3.10;99.90;;;;;;5174469;27;20026;-69
2023/03/08 04:46:55;;;;;;;15.95;8.73;;;3.10;99.90;;;;;;5175842;27;20471;-69
2023/03/08 04:49:20;;;;;;;16.50;8.93;;;3.10;99.90;;;;;;5173647;27;20440;-70
2023/03/08 04:51:46;;;;;;;16.88;8.75;;;3.20;99.90;;;;;;5159426;27;20023;-70
2023/03/08 04:54:12;;;;;;;16.98;8.75;;;3.20;99.90;;;;;;5154705;27;20014;-71
2023/03/08 04:56:37;;;;;;;13.80;8.32;;;3.30;99.90;;;;;;5153790;27;20030;-70
2023/03/08 04:59:03;;;;;;;17.13;9.40;;;3.30;99.90;;;;;;5154797;27;20648;-70
2023/03/08 05:01:28;;;;;;;17.50;9.68;;;3.30;99.90;;;;;;5153794;27;20034;-70
2023/03/08 05:03:54;;;;;;;16.10;8.88;;;3.20;99.90;;;;;;5154743;27;20019;-70
2023/03/08 05:06:22;;;;;;;19.67;9.93;;;3.20;99.90;;;;;;5153384;27;20023;-71
2023/03/08 05:08:47;;;;;;;17.58;9.32;;;3.20;99.90;;;;;;5141225;27;20489;-71
2023/03/08 05:11:18;;;;;;;21.42;10.75;;;3.20;99.90;;;;;;5133210;27;20055;-70
2023/03/08 05:13:44;;;;;;;17.67;9.60;;;3.30;99.90;;;;;;5133945;27;20045;-70
2023/03/08 05:16:10;;;;;;;18.20;10.30;;;3.30;99.90;;;;;;5133248;27;20414;-70
2023/03/08 05:18:35;;;;;;;17.70;9.23;;;3.30;99.90;;;;;;5132424;27;20031;-70
2023/03/08 05:21:07;;;;;;;15.77;9.45;;;3.30;99.90;;;;;;5133148;27;20036;-70
2023/03/08 05:23:33;;;;;;;17.23;9.55;;;3.30;99.90;;;;;;5132800;27;20040;-71
2023/03/08 05:26:00;;;;;;;20.95;10.60;;;3.30;99.90;;;;;;5139618;27;20026;-70
2023/03/08 05:28:28;;;;;;;15.93;9.68;;;3.40;99.90;;;;;;5152843;27;20069;-70
2023/03/08 05:31:01;;;;;;;24.02;10.65;;;3.50;99.90;;;;;;5153499;27;20023;-70
2023/03/08 05:33:27;;;;;;;18.10;9.73;;;3.50;99.90;;;;;;5153017;27;20026;-70
2023/03/08 05:35:55;;;;;;;19.92;9.77;;;3.50;99.90;;;;;;5144445;27;20399;-70
2023/03/08 05:38:22;;;;;;;19.65;10.00;;;3.60;99.90;;;;;;5153116;27;20480;-70
2023/03/08 05:40:48;;;;;;;19.30;9.75;;;3.60;99.90;;;;;;5153497;27;20453;-70
2023/03/08 05:43:14;;;;;;;21.15;9.48;;;3.60;99.90;;;;;;5147798;27;20035;-70
2023/03/08 05:45:40;;;;;;;18.30;9.70;;;3.70;99.90;;;;;;5149159;27;20051;-70
2023/03/08 05:48:06;;;;;;;18.55;10.07;;;3.70;99.90;;;;;;5153504;27;20023;-70
2023/03/08 05:50:31;;;;;;;19.88;10.60;;;3.70;99.90;;;;;;5151797;27;20637;-70
2023/03/08 05:52:57;;;;;;;17.58;10.23;;;3.70;99.90;;;;;;5153086;27;20018;-70
2023/03/08 05:55:23;;;;;;;21.00;10.73;;;3.70;99.90;;;;;;5151946;27;20057;-70
2023/03/08 05:57:48;;;;;;;21.58;9.90;;;3.70;99.90;;;;;;5153364;27;20479;-70
2023/03/08 06:00:15;;;;;;;20.70;10.48;;;3.70;99.90;;;;;;5151969;27;20396;-71
2023/03/08 06:02:40;;;;;;;17.75;10.23;;;3.70;99.90;;;;;;5152872;27;20030;-70
2023/03/08 06:05:06;;;;;;;22.20;11.05;;;3.70;99.90;;;;;;5149105;27;20029;-70
2023/03/08 06:07:32;;;;;;;20.40;10.98;;;3.70;99.90;;;;;;5138050;27;20614;-70
2023/03/08 06:09:58;;;;;;;23.20;11.20;;;3.70;99.90;;;;;;5143862;27;20043;-71
2023/03/08 06:12:23;;;;;;;25.90;12.05;;;3.80;99.90;;;;;;5146951;27;20023;-71
2023/03/08 06:14:49;;;;;;;18.50;11.27;;;3.80;99.90;;;;;;5148937;27;20052;-70
2023/03/08 06:17:14;;;;;;;22.38;13.27;;;3.90;99.90;;;;;;5151989;27;20023;-71
2023/03/08 06:19:40;;;;;;;24.10;12.57;;;4.00;99.90;;;;;;5152319;27;20023;-71
2023/03/08 06:22:06;;;;;;;24.98;11.82;;;4.00;99.90;;;;;;5153023;27;20087;-70
2023/03/08 06:24:31;;;;;;;23.30;11.48;;;4.10;99.90;;;;;;5151879;27;20456;-71
2023/03/08 06:26:58;;;;;;;22.98;12.18;;;4.10;99.90;;;;;;5152722;27;20026;-70
2023/03/08 06:29:24;;;;;;;22.38;11.88;;;4.10;99.90;;;;;;5151636;27;20029;-69
2023/03/08 06:31:50;;;;;;;22.88;11.85;;;4.00;99.90;;;;;;5147534;27;20109;-70
2023/03/08 06:34:15;;;;;;;21.55;12.30;;;4.00;99.90;;;;;;5150538;27;20075;-70
2023/03/08 06:36:42;;;;;;;23.70;12.43;;;4.10;99.90;;;;;;5139535;27;20481;-69
2023/03/08 06:39:08;;;;;;;23.13;13.05;;;4.10;99.90;;;;;;5151447;27;20034;-69
2023/03/08 06:41:34;;;;;;;29.05;14.23;;;4.10;99.90;;;;;;5130740;27;20050;-69
2023/03/08 06:44:00;;;;;;;22.27;12.02;;;4.10;99.90;;;;;;5151746;27;20026;-72
2023/03/08 06:46:26;;;;;;;19.92;11.20;;;4.10;99.90;;;;;;5148334;27;20051;-70
2023/03/08 06:48:52;;;;;;;21.15;11.38;;;4.30;99.90;;;;;;5153705;27;20062;-73
2023/03/08 06:51:18;;;;;;;21.42;12.07;;;4.40;99.90;;;;;;5135522;27;20523;-71
2023/03/08 06:53:45;;;;;;;22.65;11.60;;;4.40;99.90;;;;;;5152315;27;20090;-70
2023/03/08 06:56:13;;;;;;;25.67;13.07;;;4.50;99.90;;;;;;5152696;27;20019;-72
2023/03/08 06:58:39;;;;;;;24.52;12.90;;;4.60;99.90;;;;;;5154519;27;20065;-73
2023/03/08 07:01:05;;;;;;;23.27;11.13;;;4.60;99.90;;;;;;5151843;27;20096;-74
2023/03/08 07:03:32;;;;;;;19.27;11.57;;;4.60;99.90;;;;;;5146813;27;20037;-73
2023/03/08 07:06:07;;;;;;;20.60;12.35;;;4.70;99.90;;;;;;5151937;27;20106;-71
2023/03/08 07:08:32;;;;;;;21.70;12.13;;;4.70;99.90;;;;;;5151785;27;20019;-72
2023/03/08 07:10:59;;;;;;;19.63;10.90;;;4.70;99.90;;;;;;5152318;27;20494;-72
2023/03/08 07:13:25;;;;;;;18.88;11.30;;;4.70;99.90;;;;;;5154995;27;20109;-71
2023/03/08 07:15:51;;;;;;;23.98;11.73;;;4.70;99.90;;;;;;5134862;27;20156;-71
2023/03/08 07:18:17;;;;;;;25.70;13.57;;;4.70;99.90;;;;;;5149626;27;20023;-72
2023/03/08 07:20:43;;;;;;;25.90;13.05;;;4.80;99.90;;;;;;5132190;27;20038;-72
2023/03/08 07:23:09;;;;;;;21.98;12.98;;;4.80;99.90;;;;;;5159763;27;20027;-72
2023/03/08 07:25:37;;;;;;;24.67;12.38;;;4.80;99.90;;;;;;5137160;27;20031;-70
2023/03/08 07:28:03;;;;;;;18.88;10.85;;;4.80;99.90;;;;;;5149473;27;20049;-70
2023/03/08 07:30:29;;;;;;;19.92;11.43;;;4.80;99.90;;;;;;5153444;27;20449;-71
2023/03/08 07:32:54;;;;;;;20.00;11.05;;;4.80;99.90;;;;;;5116119;27;20080;-70
2023/03/08 07:35:20;;;;;;;18.73;11.60;;;4.80;99.90;;;;;;5149751;27;20512;-71
2023/03/08 07:37:46;;;;;;;19.83;11.38;;;4.80;99.90;;;;;;5156061;27;20033;-71
2023/03/08 07:40:15;;;;;;;17.58;10.27;;;4.80;99.90;;;;;;5155027;27;20457;-70
2023/03/08 07:42:41;;;;;;;20.17;11.52;;;4.80;99.90;;;;;;5154755;27;20103;-69
2023/03/08 07:45:07;;;;;;;24.42;11.77;;;4.80;99.90;;;;;;5155097;27;20043;-70
2023/03/08 07:47:33;;;;;;;16.90;11.07;;;4.80;99.90;;;;;;5154500;27;20027;-70
2023/03/08 07:49:59;;;;;;;22.15;11.52;;;4.90;99.90;;;;;;5152051;27;20031;-69
2023/03/08 07:52:29;;;;;;;20.90;12.25;;;4.90;99.90;;;;;;5154177;27;20429;-70
2023/03/08 07:54:54;;;;;;;;;;;4.90;99.90;;;;;;5155563;27;20029;-70
2023/03/08 07:57:20;;;;;;;20.00;11.68;;;4.90;99.90;;;;;;5154964;27;19903;-70
2023/03/08 07:59:46;;;;;;;17.40;10.82;;;4.90;99.90;;;;;;5154971;27;20026;-70
2023/03/08 08:02:13;;;;;;;18.83;11.45;;;4.90;99.90;;;;;;5154680;27;20384;-70
2023/03/08 08:04:40;;;;;;;25.92;11.75;;;4.90;99.90;;;;;;5154816;27;20019;-72
2023/03/08 08:07:09;;;;;;;20.02;11.73;;;4.90;99.90;;;;;;5154744;27;20078;-71
2023/03/08 08:09:36;;;;;;;21.40;10.25;;;5.00;99.90;;;;;;5153801;27;20686;-71
2023/03/08 08:12:02;;;;;;;19.50;10.57;;;5.00;99.90;;;;;;5153392;27;20082;-71
2023/03/08 08:14:28;;;;;;;22.58;11.63;;;5.10;99.90;;;;;;5152363;27;20034;-71
2023/03/08 08:16:53;;;;;;;20.33;10.63;;;5.10;99.90;;;;;;5154723;27;20027;-71
2023/03/08 08:19:19;;;;;;;17.58;10.00;;;5.20;99.90;;;;;;5134681;27;20078;-71
2023/03/08 08:21:45;;;;;;;19.13;10.70;;;5.20;99.90;;;;;;5155139;27;20483;-71
2023/03/08 08:24:10;;;;;;;20.00;11.30;;;5.20;99.90;;;;;;5154805;27;20101;-71
2023/03/08 08:26:36;;;;;;;15.82;10.20;;;5.20;99.90;;;;;;5153602;27;20110;-71
2023/03/08 08:29:02;;;;;;;16.42;9.93;;;5.20;99.90;;;;;;5154679;27;20056;-71
2023/03/08 08:31:31;;;;;;;15.80;10.00;;;5.20;99.90;;;;;;5152082;27;20111;-71
2023/03/08 08:33:58;;;;;;;19.55;10.30;;;5.20;99.90;;;;;;5154193;27;20022;-71
2023/03/08 08:36:24;;;;;;;16.95;9.77;;;5.20;99.90;;;;;;5152630;27;20050;-72
2023/03/08 08:38:49;;;;;;;18.95;11.10;;;5.20;99.90;;;;;;5153705;27;20392;-71
2023/03/08 08:41:18;;;;;;;15.93;9.75;;;5.20;99.90;;;;;;5153115;27;20492;-71
2023/03/08 08:43:45;;;;;;;15.73;9.15;;;5.20;99.90;;;;;;5154186;27;20528;-72
2023/03/08 08:46:11;;;;;;;17.80;10.18;;;5.10;99.90;;;;;;5153219;27;20114;-71
2023/03/08 08:48:37;;;;;;;16.88;9.68;;;5.20;99.90;;;;;;5149055;27;20046;-71
2023/03/08 08:51:08;;;;;;;21.15;11.13;;;5.20;99.90;;;;;;5153859;27;20457;-70
2023/03/08 08:53:35;;;;;;;18.67;10.85;;;5.20;99.90;;;;;;5153460;27;20038;-72
2023/03/08 08:56:15;;;;;;;23.33;11.02;;;5.20;99.90;;;;;;5153592;27;20039;-72
2023/03/08 08:58:40;;;;;;;17.63;10.37;;;5.20;99.90;;;;;;5148299;27;20027;-71
2023/03/08 09:01:18;;;;;;;17.58;10.00;;;5.10;99.90;;;;;;5133669;27;20037;-71
2023/03/08 09:03:44;;;;;;;22.20;10.88;;;5.10;99.90;;;;;;5144004;27;20031;-71
2023/03/08 09:06:10;;;;;;;19.50;11.63;;;5.10;99.90;;;;;;5153416;27;20027;-71
2023/03/08 09:08:36;;;;;;;18.55;11.00;;;5.20;99.90;;;;;;5153362;27;20345;-72
2023/03/08 09:11:07;;;;;;;18.58;11.20;;;5.20;99.90;;;;;;5169035;27;20033;-72
2023/03/08 09:13:32;;;;;;;22.33;11.52;;;5.30;99.90;;;;;;5153164;27;20010;-70
2023/03/08 09:15:58;;;;;;;19.33;10.93;;;5.30;99.90;;;;;;5153266;27;20031;-71
2023/03/08 09:18:24;;;;;;;21.17;11.73;;;5.20;99.90;;;;;;5152512;27;20139;-72
2023/03/08 09:20:50;;;;;;;20.92;11.55;;;5.20;99.90;;;;;;5152638;27;20035;-72
2023/03/08 09:23:16;;;;;;;20.27;11.48;;;5.30;99.90;;;;;;5151577;27;20034;-71
2023/03/08 09:25:42;;;;;;;21.50;11.88;;;5.30;99.90;;;;;;5154254;27;20026;-72
2023/03/08 09:28:09;;;;;;;21.50;11.35;;;5.30;99.90;;;;;;5151369;27;20162;-71
2023/03/08 09:30:35;;;;;;;27.52;12.40;;;5.30;99.90;;;;;;5167623;27;20446;-71
2023/03/08 09:33:02;;;;;;;22.73;12.65;;;5.30;99.90;;;;;;5153318;27;20105;-71
2023/03/08 09:35:28;;;;;;;20.65;11.80;;;5.40;99.90;;;;;;5151705;27;20055;-70
2023/03/08 09:37:54;;;;;;;22.20;12.15;;;5.40;99.90;;;;;;5153167;27;20026;-71
2023/03/08 09:40:23;;;;;;;20.67;12.63;;;5.50;99.90;;;;;;5156173;27;20014;-72
2023/03/08 09:42:49;;;;;;;24.20;13.27;;;5.60;99.90;;;;;;5152872;27;20030;-72
2023/03/08 09:45:27;;;;;;;22.77;12.38;;;5.70;99.90;;;;;;5151781;27;20053;-71
2023/03/08 09:48:16;;;;;;;22.67;12.98;;;5.80;99.90;;;;;;5153798;27;20018;-71
2023/03/08 09:50:46;;;;;;;23.13;12.70;;;5.90;99.90;;;;;;5153209;27;20025;-72
2023/03/08 09:53:49;;;;;;;16.73;11.30;;;5.90;99.90;;;;;;5153268;27;20026;-72
2023/03/08 09:56:37;;;;;;;23.58;13.10;;;6.00;99.90;;;;;;5152073;27;20031;-73
2023/03/08 09:59:29;;;;;;;25.52;13.15;;;6.10;99.90;;;;;;5152390;27;20063;-72
2023/03/08 10:02:01;;;;;;;21.92;12.10;;;6.30;99.90;;;;;;5166140;27;20387;-71
2023/03/08 10:04:34;;;;;;;23.73;13.38;;;6.40;99.90;;;;;;5154809;27;20419;-72
2023/03/08 10:07:18;;;;;;;24.15;12.48;;;6.50;99.90;;;;;;5152809;27;20057;-72
2023/03/08 10:10:23;;;;;;;23.42;12.65;;;6.80;99.90;;;;;;5151980;27;20101;-70
2023/03/08 10:12:54;;;;;;;19.30;11.23;;;7.10;99.90;;;;;;5131802;27;20043;-72
2023/03/08 10:15:24;;;;;;;26.08;12.48;;;7.60;99.90;;;;;;5151595;27;20026;-72
2023/03/08 10:18:16;;;;;;;21.13;11.38;;;7.60;99.90;;;;;;5159888;27;20368;-72
2023/03/08 10:20:42;;;;;;;21.27;11.27;;;7.70;99.90;;;;;;5158354;27;20026;-71
2023/03/08 10:23:20;;;;;;;18.65;10.73;;;7.80;99.90;;;;;;5152412;27;20026;-72
2023/03/08 10:25:47;;;;;;;16.75;10.07;;;8.00;99.90;;;;;;5152047;27;20134;-72
2023/03/08 10:28:16;;;;;;;18.60;9.98;;;8.10;99.90;;;;;;5152350;27;20068;-71
2023/03/08 10:30:55;;;;;;;15.05;7.82;;;8.20;99.90;;;;;;5152233;27;20064;-72
2023/03/08 10:33:23;;;;;;;12.68;7.28;;;8.40;99.90;;;;;;5152229;27;20029;-73
2023/03/08 10:36:01;;;;;;;14.35;6.15;;;8.50;99.90;;;;;;5152465;27;20079;-72
2023/03/08 10:38:33;;;;;;;11.95;5.50;;;8.70;99.90;;;;;;5151763;27;20023;-72
2023/03/08 10:41:11;;;;;;;12.32;5.82;;;9.00;99.90;;;;;;5151710;27;20038;-73
2023/03/08 10:43:49;;;;;;;9.13;5.85;;;9.20;99.90;;;;;;5152025;27;20027;-72
2023/03/08 10:46:30;;;;;;;8.63;4.50;;;9.50;99.90;;;;;;5151190;27;20048;-72
2023/03/08 10:49:07;;;;;;;13.07;5.30;;;9.60;99.90;;;;;;5156396;27;20038;-71
2023/03/08 10:51:33;;;;;;;6.32;3.95;;;9.80;99.90;;;;;;5155565;27;20113;-71
2023/03/08 10:54:01;;;;;;;9.73;4.35;;;10.10;99.90;;;;;;5138274;27;20465;-72
2023/03/08 10:56:38;;;;;;;8.55;3.92;;;10.40;99.90;;;;;;5155539;27;20023;-72
2023/03/08 10:59:07;;;;;;;20.77;4.78;;;;;;;;;;5156189;27;20062;-72
2023/03/08 11:01:34;;;;;;;8.70;4.30;;;;;;;;;;5164666;27;20097;-72
2023/03/08 11:04:05;;;;;;;13.88;4.32;;;11.30;99.90;;;;;;5139859;27;20487;-71
2023/03/08 11:06:35;;;;;;;15.90;4.60;;;11.30;99.90;;;;;;5155040;27;20022;-71
2023/03/08 11:09:03;;;;;;;7.65;3.80;;;11.60;99.90;;;;;;5156681;27;20029;-71
2023/03/08 11:11:40;;;;;;;15.32;2.97;;;11.70;99.90;;;;;;5136289;27;20538;-71
2023/03/08 11:14:09;;;;;;;7.30;2.88;;;11.70;99.90;;;;;;5156558;27;20061;-71
2023/03/08 11:16:53;;;;;;;7.07;2.28;;;11.90;99.90;;;;;;5154867;27;20047;-71
2023/03/08 11:19:56;;;;;;;4.75;2.40;;;12.00;99.90;;;;;;5154782;27;20060;-71
2023/03/08 11:22:27;;;;;;;3.28;1.60;;;12.10;99.90;;;;;;5151885;27;20034;-70
2023/03/08 11:25:08;;;;;;;1.73;1.40;;;12.20;99.90;;;;;;5155320;27;20035;-71
2023/03/08 11:27:52;;;;;;;6.82;1.48;;;12.20;99.90;;;;;;5155299;27;20045;-70
2023/03/08 11:30:29;;;;;;;1.90;1.27;;;12.10;99.90;;;;;;5154274;27;20101;-70
2023/03/08 11:32:57;;;;;;;3.47;1.00;;;12.10;99.90;;;;;;5155391;27;20079;-69
2023/03/08 11:35:29;;;;;;;1.75;1.25;;;12.10;99.90;;;;;;5154457;27;20406;-71
2023/03/08 11:38:08;;;;;;;2.75;1.00;;;12.00;99.90;;;;;;5155975;27;20097;-70
2023/03/08 11:40:47;;;;;;;2.77;1.53;;;12.10;99.90;;;;;;5154182;27;20022;-70
2023/03/08 11:43:46;;;;;;;1.45;1.35;;;12.10;99.90;;;;;;5155350;27;20087;-70
2023/03/08 11:46:46;;;;;;;5.65;0.90;;;12.20;99.90;;;;;;5154516;27;20043;-69
2023/03/08 11:49:43;;;;;;;3.85;1.20;;;12.20;99.90;;;;;;5132052;27;20065;-69
2023/03/08 11:52:14;;;;;;;4.13;1.20;;;12.20;99.90;;;;;;5149573;27;20125;-69
2023/03/08 11:55:00;;;;;;;2.22;0.90;;;12.30;99.90;;;;;;5154515;27;20019;-69
2023/03/08 11:57:33;;;;;;;0.80;0.77;;;12.50;99.90;;;;;;5154247;27;20027;-70
2023/03/08 12:00:11;;;;;;;1.98;0.80;;;12.50;99.90;;;;;;5155108;27;20103;-70
2023/03/08 12:02:43;;;;;;;1.83;0.93;;;12.50;99.90;;;;;;5154043;27;20114;-69
2023/03/08 12:05:30;;;;;;;2.50;0.93;;;12.50;99.90;;;;;;5155042;27;20479;-69
2023/03/08 12:08:09;;;;;;;1.70;0.77;;;12.50;99.90;;;;;;5155662;27;20035;-70
2023/03/08 12:10:43;;;;;;;5.53;0.80;;;12.50;99.90;;;;;;5155203;27;20046;-69
2023/03/08 12:13:30;;;;;;;0.98;0.88;;;12.50;99.90;;;;;;5147253;27;20082;-69
2023/03/08 12:16:04;;;;;;;1.10;0.82;;;12.60;99.90;;;;;;5151068;27;20029;-71
2023/03/08 12:18:43;;;;;;;2.05;0.90;;;12.50;99.90;;;;;;5164668;27;20772;-70
2023/03/08 12:21:20;;;;;;;3.72;1.08;;;12.60;99.90;;;;;;5154508;27;20026;-71
2023/03/08 12:24:22;;;;;;;3.20;1.02;;;12.70;99.90;;;;;;5135396;27;20035;-69
2023/03/08 12:27:02;;;;;;;1.77;1.08;;;13.00;99.90;;;;;;5155209;27;20018;-71
2023/03/08 12:29:28;;;;;;;;;;;13.00;99.90;;;;;;5153532;27;20027;-70
2023/03/08 12:31:54;;;;;;;2.05;0.90;;;13.10;99.90;;;;;;5154860;27;20383;-69
2023/03/08 12:34:37;;;;;;;6.35;0.98;;;13.10;99.90;;;;;;5153903;27;20030;-69
2023/03/08 12:37:03;;;;;;;2.72;0.80;;;13.10;99.90;;;;;;5154540;27;20079;-70
2023/03/08 12:39:35;;;;;;;0.88;0.57;;;13.00;99.90;;;;;;5153113;27;20030;-69
2023/03/08 12:42:09;;;;;;;2.00;1.00;;;12.90;99.90;;;;;;5147908;27;20114;-70
2023/03/08 12:44:36;;;;;;;3.05;0.90;;;12.90;99.90;;;;;;5152688;27;20023;-69
2023/03/08 12:47:10;;;;;;;5.38;1.00;;;12.90;99.90;;;;;;5154342;27;20071;-70
2023/03/08 12:49:39;;;;;;;4.20;1.15;;;12.90;99.90;;;;;;5151360;27;20029;-71
2023/03/08 12:52:17;;;;;;;1.42;0.77;;;12.90;99.90;;;;;;5148303;27;20023;-71